createdAt,value
2017-07-17T00:00:12.469Z,0
2017-07-17T00:01:14.039Z,0
2017-07-17T00:02:15.594Z,0
2017-07-17T00:03:17.191Z,0
2017-07-17T00:04:18.832Z,0
2017-07-17T00:05:20.409Z,0
2017-07-17T00:06:22.088Z,0
2017-07-17T00:07:23.892Z,0
2017-07-17T00:08:25.474Z,0
2017-07-17T00:09:27.090Z,0
2017-07-17T00:10:28.662Z,0
2017-07-17T00:11:30.260Z,0
2017-07-17T00:12:31.821Z,0
2017-07-17T00:13:33.487Z,0
2017-07-17T00:14:35.046Z,0
2017-07-17T00:15:36.632Z,0
2017-07-17T00:16:38.240Z,0
2017-07-17T00:17:39.874Z,0
2017-07-17T00:18:41.427Z,0
2017-07-17T00:19:42.983Z,0
2017-07-17T00:20:44.531Z,0
2017-07-17T00:21:46.115Z,0
2017-07-17T00:22:47.673Z,0
2017-07-17T00:23:49.236Z,0
2017-07-17T00:24:50.831Z,0
2017-07-17T00:25:52.421Z,0
2017-07-17T00:26:53.993Z,0
2017-07-17T00:27:55.562Z,0
2017-07-17T00:28:57.179Z,0
2017-07-17T00:29:58.784Z,0
2017-07-17T00:31:00.361Z,0
2017-07-17T00:32:01.946Z,0
2017-07-17T00:33:03.585Z,0
2017-07-17T00:34:05.172Z,0
2017-07-17T00:35:06.739Z,0
2017-07-17T00:36:08.320Z,0
2017-07-17T00:37:09.879Z,0
2017-07-17T00:38:11.403Z,0
2017-07-17T00:39:12.942Z,0
2017-07-17T00:40:14.762Z,0
2017-07-17T00:41:16.335Z,0
2017-07-17T00:42:17.947Z,0
2017-07-17T00:43:19.470Z,0
2017-07-17T00:44:21.077Z,0
2017-07-17T00:45:22.652Z,0
2017-07-17T00:46:24.253Z,0
2017-07-17T00:47:25.858Z,0
2017-07-17T00:48:27.424Z,0
2017-07-17T00:49:28.990Z,0
2017-07-17T00:50:30.511Z,0
2017-07-17T00:51:32.132Z,0
2017-07-17T00:52:33.710Z,0
2017-07-17T00:53:35.284Z,0
2017-07-17T00:54:36.891Z,0
2017-07-17T00:55:38.459Z,0
2017-07-17T00:56:40.041Z,0
2017-07-17T00:57:41.625Z,0
2017-07-17T00:58:43.169Z,0
2017-07-17T00:59:44.728Z,0
2017-07-17T01:00:46.282Z,0
2017-07-17T01:01:47.836Z,0
2017-07-17T01:02:49.456Z,0
2017-07-17T01:03:51.046Z,0
2017-07-17T01:04:52.618Z,0
2017-07-17T01:05:54.201Z,0
2017-07-17T01:06:55.848Z,0
2017-07-17T01:07:57.409Z,0
2017-07-17T01:08:59.007Z,0
2017-07-17T01:10:00.596Z,0
2017-07-17T01:11:02.163Z,0
2017-07-17T01:12:03.718Z,0
2017-07-17T01:13:05.303Z,0
2017-07-17T01:14:06.896Z,0
2017-07-17T01:15:09.367Z,0
2017-07-17T01:16:10.943Z,0
2017-07-17T01:17:12.540Z,0
2017-07-17T01:18:14.139Z,0
2017-07-17T01:19:15.773Z,0
2017-07-17T01:20:17.339Z,0
2017-07-17T01:21:18.951Z,0
2017-07-17T01:22:20.493Z,0
2017-07-17T01:23:22.078Z,0
2017-07-17T01:24:23.653Z,0
2017-07-17T01:25:25.216Z,0
2017-07-17T01:26:26.760Z,0
2017-07-17T01:27:28.333Z,0
2017-07-17T01:28:29.888Z,0
2017-07-17T01:29:31.467Z,0
2017-07-17T01:30:33.064Z,0
2017-07-17T01:31:34.678Z,0
2017-07-17T01:32:36.268Z,0
2017-07-17T01:33:37.824Z,0
2017-07-17T01:34:39.401Z,0
2017-07-17T01:35:40.984Z,0
2017-07-17T01:36:42.588Z,0
2017-07-17T01:37:44.165Z,0
2017-07-17T01:38:45.769Z,0
2017-07-17T01:39:47.388Z,0
2017-07-17T01:40:48.946Z,0
2017-07-17T01:41:50.496Z,0
2017-07-17T01:42:52.041Z,0
2017-07-17T01:43:53.604Z,0
2017-07-17T01:44:55.184Z,0
2017-07-17T01:45:56.730Z,0
2017-07-17T01:46:58.375Z,0
2017-07-17T01:48:00.016Z,0
2017-07-17T01:49:01.607Z,0
2017-07-17T01:50:03.189Z,0
2017-07-17T01:51:04.777Z,0
2017-07-17T01:52:06.378Z,0
2017-07-17T01:53:07.996Z,0
2017-07-17T01:54:09.832Z,0
2017-07-17T01:55:11.438Z,0
2017-07-17T01:56:13.008Z,0
2017-07-17T01:57:14.600Z,0
2017-07-17T01:58:16.160Z,0
2017-07-17T01:59:17.725Z,0
2017-07-17T02:00:19.312Z,0
2017-07-17T02:01:20.927Z,0
2017-07-17T02:02:22.505Z,0
2017-07-17T02:03:24.101Z,0
2017-07-17T02:04:25.702Z,0
2017-07-17T02:05:27.229Z,0
2017-07-17T02:06:28.841Z,0
2017-07-17T02:07:30.414Z,0
2017-07-17T02:08:31.951Z,0
2017-07-17T02:09:33.527Z,0
2017-07-17T02:10:35.112Z,0
2017-07-17T02:11:36.699Z,0
2017-07-17T02:12:38.308Z,0
2017-07-17T02:13:39.948Z,0
2017-07-17T02:14:41.499Z,0
2017-07-17T02:15:43.074Z,0
2017-07-17T02:16:44.660Z,0
2017-07-17T02:17:46.215Z,0
2017-07-17T02:18:47.790Z,0
2017-07-17T02:19:49.355Z,0
2017-07-17T02:20:50.941Z,0
2017-07-17T02:21:52.506Z,0
2017-07-17T02:22:54.108Z,0
2017-07-17T02:23:55.894Z,0
2017-07-17T02:24:57.501Z,0
2017-07-17T02:25:59.129Z,0
2017-07-17T02:27:00.759Z,0
2017-07-17T02:28:02.374Z,0
2017-07-17T02:29:03.948Z,0
2017-07-17T02:30:05.521Z,0
2017-07-17T02:31:07.070Z,0
2017-07-17T02:32:08.604Z,0
2017-07-17T02:33:10.181Z,0
2017-07-17T02:34:11.762Z,0
2017-07-17T02:35:13.338Z,0
2017-07-17T02:36:14.929Z,0
2017-07-17T02:37:16.526Z,0
2017-07-17T02:38:18.143Z,0
2017-07-17T02:39:19.771Z,0
2017-07-17T02:40:21.338Z,0
2017-07-17T02:41:22.940Z,0
2017-07-17T02:42:24.507Z,0
2017-07-17T02:43:26.073Z,0
2017-07-17T02:44:27.625Z,0
2017-07-17T02:45:29.205Z,0
2017-07-17T02:46:30.771Z,0
2017-07-17T02:47:32.373Z,0
2017-07-17T02:48:33.906Z,0
2017-07-17T02:49:35.504Z,0
2017-07-17T02:50:37.079Z,0
2017-07-17T02:51:38.613Z,0
2017-07-17T02:52:40.185Z,0
2017-07-17T02:53:41.770Z,0
2017-07-17T02:54:43.397Z,0
2017-07-17T02:55:44.967Z,0
2017-07-17T02:56:46.582Z,0
2017-07-17T02:57:48.205Z,0
2017-07-17T02:58:49.769Z,0
2017-07-17T02:59:51.304Z,0
2017-07-17T03:00:52.884Z,0
2017-07-17T03:01:54.427Z,0
2017-07-17T03:02:55.976Z,0
2017-07-17T03:03:57.534Z,0
2017-07-17T03:04:59.136Z,0
2017-07-17T03:06:00.673Z,0
2017-07-17T03:07:02.227Z,0
2017-07-17T03:08:03.807Z,0
2017-07-17T03:09:05.361Z,0
2017-07-17T03:10:06.943Z,0
2017-07-17T03:11:08.471Z,0
2017-07-17T03:12:10.087Z,0
2017-07-17T03:13:11.715Z,0
2017-07-17T03:14:13.305Z,0
2017-07-17T03:15:14.879Z,0
2017-07-17T03:16:16.473Z,0
2017-07-17T03:17:18.045Z,0
2017-07-17T03:18:19.622Z,0
2017-07-17T03:19:21.159Z,0
2017-07-17T03:20:22.707Z,0
2017-07-17T03:21:24.268Z,0
2017-07-17T03:22:25.833Z,0
2017-07-17T03:23:27.440Z,0
2017-07-17T03:24:29.015Z,0
2017-07-17T03:25:30.573Z,0
2017-07-17T03:26:32.143Z,0
2017-07-17T03:27:33.716Z,0
2017-07-17T03:28:35.351Z,0
2017-07-17T03:29:36.925Z,0
2017-07-17T03:30:38.477Z,0
2017-07-17T03:31:40.026Z,0
2017-07-17T03:32:41.598Z,0
2017-07-17T03:33:43.242Z,0
2017-07-17T03:34:44.804Z,0
2017-07-17T03:35:46.350Z,0
2017-07-17T03:36:47.899Z,0
2017-07-17T03:37:49.448Z,0
2017-07-17T03:38:51.093Z,0
2017-07-17T03:39:52.689Z,0
2017-07-17T03:40:54.248Z,0
2017-07-17T03:41:55.817Z,0
2017-07-17T03:42:57.370Z,0
2017-07-17T03:43:58.934Z,0
2017-07-17T03:45:00.509Z,0
2017-07-17T03:46:02.048Z,0
2017-07-17T03:47:03.601Z,0
2017-07-17T03:48:05.138Z,0
2017-07-17T03:49:06.675Z,0
2017-07-17T03:50:08.206Z,0
2017-07-17T03:51:09.795Z,0
2017-07-17T03:52:11.339Z,0
2017-07-17T03:53:12.879Z,0
2017-07-17T03:54:14.415Z,0
2017-07-17T03:55:15.978Z,0
2017-07-17T03:56:17.535Z,0
2017-07-17T03:57:19.073Z,0
2017-07-17T03:58:20.622Z,0
2017-07-17T03:59:22.221Z,0
2017-07-17T04:00:23.787Z,0
2017-07-17T04:01:25.667Z,0
2017-07-17T04:02:27.258Z,0
2017-07-17T04:03:28.809Z,0
2017-07-17T04:04:30.907Z,0
2017-07-17T04:05:32.496Z,0
2017-07-17T04:06:34.043Z,0
2017-07-17T04:07:35.614Z,0
2017-07-17T04:08:37.190Z,0
2017-07-17T04:09:38.745Z,0
2017-07-17T04:10:40.290Z,0
2017-07-17T04:11:41.826Z,0
2017-07-17T04:12:43.386Z,0
2017-07-17T04:13:44.947Z,0
2017-07-17T04:14:46.500Z,0
2017-07-17T04:15:48.038Z,0
2017-07-17T04:16:49.604Z,0
2017-07-17T04:17:51.177Z,0
2017-07-17T04:18:52.735Z,0
2017-07-17T04:19:54.289Z,0
2017-07-17T04:20:55.860Z,5
2017-07-17T04:21:57.367Z,5
2017-07-17T04:22:58.934Z,5
2017-07-17T04:24:00.497Z,5
2017-07-17T04:25:02.052Z,0
2017-07-17T04:26:03.595Z,5
2017-07-17T04:27:05.650Z,5
2017-07-17T04:28:07.185Z,5
2017-07-17T04:29:08.739Z,5
2017-07-17T04:30:10.360Z,5
2017-07-17T04:31:11.922Z,0
2017-07-17T04:32:13.464Z,0
2017-07-17T04:33:14.996Z,5
2017-07-17T04:34:16.554Z,5
2017-07-17T04:35:18.109Z,5
2017-07-17T04:36:19.647Z,5
2017-07-17T04:37:24.785Z,5
2017-07-17T04:38:26.076Z,5
2017-07-17T04:39:27.654Z,5
2017-07-17T04:40:29.196Z,5
2017-07-17T04:41:31.066Z,5
2017-07-17T04:42:32.997Z,5
2017-07-17T04:43:34.542Z,5
2017-07-17T04:44:37.083Z,5
2017-07-17T04:45:42.371Z,5
2017-07-17T04:46:45.295Z,5
2017-07-17T04:47:46.823Z,5
2017-07-17T04:48:48.375Z,5
2017-07-17T04:49:49.899Z,5
2017-07-17T04:50:51.422Z,5
2017-07-17T04:51:52.938Z,5
2017-07-17T04:52:54.479Z,5
2017-07-17T04:53:56.003Z,5
2017-07-17T04:54:57.549Z,5
2017-07-17T04:55:59.087Z,5
2017-07-17T04:57:00.644Z,5
2017-07-17T04:58:02.214Z,5
2017-07-17T04:59:03.717Z,5
2017-07-17T05:00:05.297Z,5
2017-07-17T05:01:06.844Z,5
2017-07-17T05:02:08.349Z,5
2017-07-17T05:03:09.907Z,5
2017-07-17T05:04:11.457Z,5
2017-07-17T05:05:12.999Z,5
2017-07-17T05:06:14.544Z,5
2017-07-17T05:07:16.080Z,5
2017-07-17T05:08:17.643Z,5
2017-07-17T05:09:19.235Z,5
2017-07-17T05:10:20.812Z,5
2017-07-17T05:11:22.353Z,5
2017-07-17T05:12:23.883Z,5
2017-07-17T05:13:25.454Z,5
2017-07-17T05:14:26.983Z,5
2017-07-17T05:15:28.552Z,5
2017-07-17T05:16:30.120Z,5
2017-07-17T05:17:31.647Z,5
2017-07-17T05:18:33.193Z,10
2017-07-17T05:19:34.740Z,10
2017-07-17T05:20:36.320Z,10
2017-07-17T05:21:37.852Z,10
2017-07-17T05:22:39.357Z,10
2017-07-17T05:23:40.923Z,10
2017-07-17T05:24:42.470Z,10
2017-07-17T05:25:44.056Z,10
2017-07-17T05:26:45.623Z,10
2017-07-17T05:27:47.171Z,10
2017-07-17T05:28:48.691Z,10
2017-07-17T05:29:50.168Z,10
2017-07-17T05:30:51.653Z,10
2017-07-17T05:31:53.210Z,10
2017-07-17T05:32:54.747Z,10
2017-07-17T05:33:56.460Z,10
2017-07-17T05:34:58.104Z,10
2017-07-17T05:35:59.664Z,10
2017-07-17T05:37:01.221Z,15
2017-07-17T05:38:02.817Z,15
2017-07-17T05:39:04.348Z,15
2017-07-17T05:40:05.912Z,15
2017-07-17T05:41:07.467Z,15
2017-07-17T05:42:08.996Z,15
2017-07-17T05:43:10.597Z,15
2017-07-17T05:44:12.149Z,15
2017-07-17T05:45:13.689Z,15
2017-07-17T05:46:15.282Z,15
2017-07-17T05:47:16.841Z,15
2017-07-17T05:48:18.431Z,15
2017-07-17T05:49:19.961Z,15
2017-07-17T05:50:21.490Z,20
2017-07-17T05:51:23.090Z,20
2017-07-17T05:52:24.648Z,20
2017-07-17T05:53:26.180Z,25
2017-07-17T05:54:27.749Z,20
2017-07-17T05:55:29.390Z,25
2017-07-17T05:56:30.929Z,25
2017-07-17T05:57:32.462Z,25
2017-07-17T05:58:34.125Z,20
2017-07-17T05:59:35.675Z,25
2017-07-17T06:00:37.214Z,20
2017-07-17T06:01:38.776Z,20
2017-07-17T06:02:40.360Z,25
2017-07-17T06:03:41.935Z,25
2017-07-17T06:04:43.515Z,25
2017-07-17T06:05:45.092Z,25
2017-07-17T06:06:46.659Z,35
2017-07-17T06:07:48.224Z,45
2017-07-17T06:08:49.817Z,45
2017-07-17T06:09:51.438Z,45
2017-07-17T06:10:53.020Z,40
2017-07-17T06:11:54.606Z,50
2017-07-17T06:12:56.208Z,50
2017-07-17T06:13:57.970Z,45
2017-07-17T06:14:59.543Z,50
2017-07-17T06:16:01.143Z,50
2017-07-17T06:17:02.741Z,55
2017-07-17T06:18:04.294Z,55
2017-07-17T06:19:05.860Z,60
2017-07-17T06:20:07.425Z,60
2017-07-17T06:21:08.969Z,60
2017-07-17T06:22:10.538Z,60
2017-07-17T06:23:12.089Z,60
2017-07-17T06:24:13.654Z,60
2017-07-17T06:25:15.209Z,60
2017-07-17T06:26:16.801Z,60
2017-07-17T06:27:18.397Z,55
2017-07-17T06:28:19.936Z,55
2017-07-17T06:29:21.513Z,55
2017-07-17T06:30:23.165Z,60
2017-07-17T06:31:24.702Z,60
2017-07-17T06:32:26.296Z,60
2017-07-17T06:33:27.907Z,65
2017-07-17T06:34:29.499Z,65
2017-07-17T06:35:31.034Z,70
2017-07-17T06:36:32.565Z,65
2017-07-17T06:37:34.127Z,65
2017-07-17T06:38:35.690Z,65
2017-07-17T06:39:37.231Z,60
2017-07-17T06:40:38.787Z,65
2017-07-17T06:41:40.352Z,65
2017-07-17T06:42:41.939Z,65
2017-07-17T06:43:43.546Z,70
2017-07-17T06:44:45.088Z,75
2017-07-17T06:45:46.635Z,75
2017-07-17T06:46:48.208Z,75
2017-07-17T06:47:49.981Z,80
2017-07-17T06:48:51.722Z,75
2017-07-17T06:49:53.307Z,75
2017-07-17T06:50:54.907Z,75
2017-07-17T06:51:56.540Z,75
2017-07-17T06:52:58.193Z,70
2017-07-17T06:53:59.750Z,75
2017-07-17T06:55:01.282Z,80
2017-07-17T06:56:02.812Z,80
2017-07-17T06:57:04.429Z,80
2017-07-17T06:58:06.079Z,75
2017-07-17T06:59:07.718Z,70
2017-07-17T07:00:09.283Z,60
2017-07-17T07:01:10.865Z,60
2017-07-17T07:02:12.433Z,70
2017-07-17T07:03:14.103Z,80
2017-07-17T07:04:15.685Z,85
2017-07-17T07:05:17.260Z,85
2017-07-17T07:06:18.806Z,70
2017-07-17T07:07:20.433Z,65
2017-07-17T07:08:21.987Z,65
2017-07-17T07:09:23.552Z,70
2017-07-17T07:10:25.118Z,75
2017-07-17T07:11:26.712Z,70
2017-07-17T07:12:28.895Z,80
2017-07-17T07:13:30.664Z,85
2017-07-17T07:14:32.338Z,90
2017-07-17T07:15:33.919Z,85
2017-07-17T07:16:35.459Z,80
2017-07-17T07:17:37.063Z,80
2017-07-17T07:18:39.399Z,80
2017-07-17T07:19:41.004Z,80
2017-07-17T07:20:42.580Z,80
2017-07-17T07:21:44.150Z,80
2017-07-17T07:22:45.726Z,80
2017-07-17T07:23:47.261Z,80
2017-07-17T07:24:48.863Z,80
2017-07-17T07:25:50.457Z,75
2017-07-17T07:26:52.067Z,70
2017-07-17T07:27:53.676Z,70
2017-07-17T07:28:55.276Z,75
2017-07-17T07:29:56.884Z,75
2017-07-17T07:30:58.578Z,75
2017-07-17T07:32:00.256Z,80
2017-07-17T07:33:01.811Z,85
2017-07-17T07:34:03.382Z,85
2017-07-17T07:35:04.983Z,85
2017-07-17T07:36:06.545Z,90
2017-07-17T07:37:08.147Z,85
2017-07-17T07:38:09.904Z,85
2017-07-17T07:39:11.536Z,90
2017-07-17T07:40:13.345Z,90
2017-07-17T07:41:14.900Z,90
2017-07-17T07:42:16.487Z,90
2017-07-17T07:43:18.254Z,90
2017-07-17T07:44:20.212Z,90
2017-07-17T07:45:22.205Z,90
2017-07-17T07:46:24.181Z,90
2017-07-17T07:47:25.974Z,90
2017-07-17T07:48:27.663Z,85
2017-07-17T07:49:29.433Z,80
2017-07-17T07:50:31.076Z,80
2017-07-17T07:51:32.713Z,80
2017-07-17T07:52:34.424Z,80
2017-07-17T07:53:36.184Z,80
2017-07-17T07:54:38.000Z,80
2017-07-17T07:55:39.981Z,80
2017-07-17T07:56:41.805Z,80
2017-07-17T07:57:43.566Z,80
2017-07-17T07:58:45.383Z,85
2017-07-17T07:59:47.117Z,95
2017-07-17T08:00:48.817Z,100
2017-07-17T08:01:50.569Z,105
2017-07-17T08:02:52.150Z,105
2017-07-17T08:03:53.821Z,105
2017-07-17T08:04:55.393Z,105
2017-07-17T08:05:56.994Z,110
2017-07-17T08:06:58.615Z,110
2017-07-17T08:08:00.239Z,105
2017-07-17T08:09:01.798Z,105
2017-07-17T08:10:03.981Z,110
2017-07-17T08:11:05.555Z,110
2017-07-17T08:12:07.142Z,115
2017-07-17T08:13:08.901Z,120
2017-07-17T08:14:10.483Z,115
2017-07-17T08:15:12.189Z,110
2017-07-17T08:16:13.934Z,110
2017-07-17T08:17:15.699Z,115
2017-07-17T08:18:17.563Z,115
2017-07-17T08:19:19.508Z,110
2017-07-17T08:20:21.367Z,110
2017-07-17T08:21:23.275Z,105
2017-07-17T08:22:25.093Z,100
2017-07-17T08:23:26.739Z,100
2017-07-17T08:24:28.393Z,100
2017-07-17T08:25:30.133Z,100
2017-07-17T08:26:31.910Z,105
2017-07-17T08:27:33.476Z,110
2017-07-17T08:28:35.059Z,115
2017-07-17T08:29:36.610Z,115
2017-07-17T08:30:38.180Z,115
2017-07-17T08:31:39.743Z,115
2017-07-17T08:32:41.289Z,115
2017-07-17T08:33:42.910Z,120
2017-07-17T08:34:44.475Z,120
2017-07-17T08:35:46.096Z,125
2017-07-17T08:36:47.642Z,125
2017-07-17T08:37:49.198Z,120
2017-07-17T08:38:51.047Z,120
2017-07-17T08:39:52.581Z,120
2017-07-17T08:40:54.245Z,120
2017-07-17T08:41:55.842Z,120
2017-07-17T08:42:57.417Z,115
2017-07-17T08:43:58.958Z,110
2017-07-17T08:45:00.605Z,110
2017-07-17T08:46:02.212Z,110
2017-07-17T08:47:03.793Z,115
2017-07-17T08:48:05.426Z,120
2017-07-17T08:49:07.005Z,125
2017-07-17T08:50:08.550Z,120
2017-07-17T08:51:10.142Z,110
2017-07-17T08:52:11.733Z,110
2017-07-17T08:53:13.348Z,105
2017-07-17T08:54:14.916Z,100
2017-07-17T08:55:16.476Z,95
2017-07-17T08:56:18.037Z,90
2017-07-17T08:57:19.610Z,90
2017-07-17T08:58:21.228Z,95
2017-07-17T08:59:23.330Z,100
2017-07-17T09:00:24.902Z,110
2017-07-17T09:01:26.472Z,120
2017-07-17T09:02:28.069Z,125
2017-07-17T09:03:29.680Z,130
2017-07-17T09:04:31.255Z,125
2017-07-17T09:05:32.813Z,120
2017-07-17T09:06:34.346Z,120
2017-07-17T09:07:35.950Z,125
2017-07-17T09:08:37.568Z,125
2017-07-17T09:09:39.134Z,130
2017-07-17T09:10:40.692Z,125
2017-07-17T09:11:42.967Z,125
2017-07-17T09:12:44.570Z,120
2017-07-17T09:13:46.157Z,120
2017-07-17T09:14:47.753Z,120
2017-07-17T09:15:49.346Z,125
2017-07-17T09:16:50.853Z,120
2017-07-17T09:17:52.593Z,115
2017-07-17T09:18:54.130Z,115
2017-07-17T09:19:55.754Z,105
2017-07-17T09:20:57.312Z,100
2017-07-17T09:21:58.908Z,95
2017-07-17T09:23:00.500Z,90
2017-07-17T09:24:02.167Z,85
2017-07-17T09:25:03.777Z,85
2017-07-17T09:26:05.393Z,80
2017-07-17T09:27:07.033Z,75
2017-07-17T09:28:08.591Z,70
2017-07-17T09:29:10.243Z,70
2017-07-17T09:30:11.883Z,75
2017-07-17T09:31:13.451Z,80
2017-07-17T09:32:15.031Z,80
2017-07-17T09:33:16.747Z,80
2017-07-17T09:34:18.383Z,85
2017-07-17T09:35:19.922Z,90
2017-07-17T09:36:21.472Z,95
2017-07-17T09:37:23.098Z,100
2017-07-17T09:38:24.656Z,100
2017-07-17T09:39:26.210Z,100
2017-07-17T09:40:27.787Z,95
2017-07-17T09:41:29.347Z,90
2017-07-17T09:42:30.984Z,90
2017-07-17T09:43:32.606Z,90
2017-07-17T09:44:34.171Z,85
2017-07-17T09:45:35.733Z,80
2017-07-17T09:46:37.302Z,80
2017-07-17T09:47:38.930Z,80
2017-07-17T09:48:40.521Z,80
2017-07-17T09:49:42.112Z,80
2017-07-17T09:50:45.243Z,75
2017-07-17T09:51:46.854Z,80
2017-07-17T09:52:48.524Z,80
2017-07-17T09:53:50.097Z,80
2017-07-17T09:54:51.701Z,85
2017-07-17T09:55:53.267Z,95
2017-07-17T09:56:54.819Z,100
2017-07-17T09:57:56.387Z,95
2017-07-17T09:58:57.971Z,95
2017-07-17T09:59:59.545Z,90
2017-07-17T10:01:01.123Z,80
2017-07-17T10:02:02.720Z,75
2017-07-17T10:03:04.313Z,75
2017-07-17T10:04:05.892Z,70
2017-07-17T10:05:07.460Z,70
2017-07-17T10:06:09.035Z,75
2017-07-17T10:07:10.557Z,80
2017-07-17T10:08:12.115Z,75
2017-07-17T10:09:13.658Z,80
2017-07-17T10:10:15.350Z,85
2017-07-17T10:11:17.027Z,80
2017-07-17T10:12:18.602Z,80
2017-07-17T10:13:20.213Z,80
2017-07-17T10:14:21.768Z,75
2017-07-17T10:15:23.380Z,70
2017-07-17T10:16:24.974Z,65
2017-07-17T10:17:26.553Z,60
2017-07-17T10:18:28.166Z,55
2017-07-17T10:19:38.364Z,55
2017-07-17T10:20:39.922Z,55
2017-07-17T10:21:41.644Z,50
2017-07-17T10:22:43.224Z,45
2017-07-17T10:23:44.811Z,45
2017-07-17T10:24:46.373Z,45
2017-07-17T10:25:47.981Z,40
2017-07-17T10:26:49.644Z,45
2017-07-17T10:27:51.253Z,40
2017-07-17T10:28:52.874Z,45
2017-07-17T10:29:54.447Z,45
2017-07-17T10:30:56.952Z,45
2017-07-17T10:31:58.558Z,45
2017-07-17T10:33:00.206Z,45
2017-07-17T10:34:01.795Z,40
2017-07-17T10:35:03.390Z,40
2017-07-17T10:36:04.992Z,40
2017-07-17T10:37:06.537Z,40
2017-07-17T10:38:08.202Z,40
2017-07-17T10:39:09.862Z,40
2017-07-17T10:40:11.440Z,40
2017-07-17T10:41:13.065Z,40
2017-07-17T10:42:14.594Z,40
2017-07-17T10:43:16.232Z,40
2017-07-17T10:44:17.891Z,40
2017-07-17T10:45:19.494Z,40
2017-07-17T10:46:21.120Z,40
2017-07-17T10:47:22.761Z,40
2017-07-17T10:48:24.316Z,40
2017-07-17T10:49:25.885Z,40
2017-07-17T10:50:27.456Z,40
2017-07-17T10:51:29.036Z,40
2017-07-17T10:52:30.757Z,40
2017-07-17T10:53:32.367Z,40
2017-07-17T10:54:33.905Z,40
2017-07-17T10:55:35.607Z,40
2017-07-17T10:56:37.178Z,40
2017-07-17T10:57:38.770Z,40
2017-07-17T10:58:40.359Z,40
2017-07-17T10:59:42.028Z,40
2017-07-17T11:00:45.617Z,40
2017-07-17T11:01:47.187Z,40
2017-07-17T11:02:48.777Z,40
2017-07-17T11:03:50.388Z,40
2017-07-17T11:04:52.013Z,40
2017-07-17T11:05:53.610Z,40
2017-07-17T11:06:55.219Z,40
2017-07-17T11:07:56.834Z,40
2017-07-17T11:08:58.448Z,40
2017-07-17T11:10:00.093Z,40
2017-07-17T11:11:01.657Z,40
2017-07-17T11:12:03.291Z,40
2017-07-17T11:13:04.882Z,40
2017-07-17T11:14:06.554Z,40
2017-07-17T11:15:08.123Z,40
2017-07-17T11:16:09.717Z,40
2017-07-17T11:17:11.300Z,40
2017-07-17T11:18:12.882Z,40
2017-07-17T11:19:14.480Z,40
2017-07-17T11:20:16.166Z,40
2017-07-17T11:21:17.738Z,40
2017-07-17T11:22:19.453Z,40
2017-07-17T11:23:21.023Z,40
2017-07-17T11:24:22.668Z,40
2017-07-17T11:25:24.258Z,40
2017-07-17T11:26:25.833Z,40
2017-07-17T11:27:27.388Z,40
2017-07-17T11:28:28.997Z,40
2017-07-17T11:29:30.585Z,40
2017-07-17T11:30:32.193Z,40
2017-07-17T11:31:33.842Z,40
2017-07-17T11:32:35.440Z,40
2017-07-17T11:33:37.039Z,40
2017-07-17T11:34:38.661Z,40
2017-07-17T11:35:40.284Z,40
2017-07-17T11:36:41.877Z,40
2017-07-17T11:37:43.480Z,40
2017-07-17T11:38:45.123Z,40
2017-07-17T11:39:46.725Z,40
2017-07-17T11:40:48.372Z,40
2017-07-17T11:41:49.981Z,40
2017-07-17T11:42:51.587Z,40
2017-07-17T11:43:53.137Z,40
2017-07-17T11:44:54.734Z,40
2017-07-17T11:45:56.343Z,40
2017-07-17T11:56:13.202Z,40
2017-07-17T11:57:15.761Z,40
2017-07-17T11:58:56.810Z,40
2017-07-17T11:59:58.247Z,40
2017-07-17T12:00:59.691Z,40
2017-07-17T12:02:01.158Z,40
2017-07-17T12:03:02.607Z,40
2017-07-17T12:04:04.302Z,40
2017-07-17T12:05:46.529Z,40
2017-07-17T12:06:47.284Z,40
2017-07-17T12:07:48.840Z,40
2017-07-17T12:08:50.506Z,40
2017-07-17T12:09:52.154Z,40
2017-07-17T12:10:53.933Z,40
2017-07-17T12:11:55.592Z,40
2017-07-17T12:12:59.398Z,40
2017-07-17T12:14:01.370Z,40
2017-07-17T12:15:03.087Z,40
2017-07-17T12:16:05.472Z,40
2017-07-17T12:17:07.233Z,40
2017-07-17T12:18:08.885Z,40
2017-07-17T12:19:10.652Z,40
2017-07-17T12:20:12.305Z,40
2017-07-17T12:21:13.833Z,40
2017-07-17T12:22:15.431Z,40
2017-07-17T12:23:19.771Z,40
2017-07-17T12:24:22.932Z,40
2017-07-17T12:25:24.551Z,40
2017-07-17T12:26:28.007Z,40
2017-07-17T12:27:29.653Z,40
2017-07-17T12:28:31.241Z,40
2017-07-17T12:29:32.837Z,40
2017-07-17T12:30:35.733Z,40
2017-07-17T12:31:37.370Z,40
2017-07-17T12:32:40.001Z,40
2017-07-17T12:33:41.613Z,40
2017-07-17T12:34:43.269Z,40
2017-07-17T12:35:47.462Z,40
2017-07-17T12:36:49.220Z,40
2017-07-17T12:37:50.963Z,40
2017-07-17T12:38:52.699Z,40
2017-07-17T12:39:57.032Z,40
2017-07-17T12:41:01.833Z,40
2017-07-17T12:42:04.969Z,40
2017-07-17T12:43:09.585Z,40
2017-07-17T12:44:11.273Z,40
2017-07-17T12:45:13.994Z,40
2017-07-17T12:46:17.729Z,40
2017-07-17T12:47:19.289Z,40
2017-07-17T12:48:21.534Z,40
2017-07-17T12:49:23.159Z,40
2017-07-17T12:50:24.851Z,45
2017-07-17T12:51:26.413Z,45
2017-07-17T12:52:29.240Z,45
2017-07-17T12:53:30.908Z,45
2017-07-17T12:54:33.564Z,45
2017-07-17T12:55:35.183Z,45
2017-07-17T12:56:37.000Z,45
2017-07-17T12:57:38.723Z,45
2017-07-17T12:58:42.219Z,45
2017-07-17T12:59:43.986Z,45
2017-07-17T13:00:45.572Z,45
2017-07-17T13:01:47.404Z,45
2017-07-17T13:02:49.079Z,45
2017-07-17T13:03:50.681Z,45
2017-07-17T13:04:52.263Z,45
2017-07-17T13:05:53.814Z,45
2017-07-17T13:06:55.371Z,45
2017-07-17T13:07:56.988Z,45
2017-07-17T13:08:58.626Z,45
2017-07-17T13:10:00.253Z,45
2017-07-17T13:11:02.003Z,45
2017-07-17T13:12:06.714Z,45
2017-07-17T13:13:11.484Z,45
2017-07-17T13:14:13.246Z,45
2017-07-17T13:15:16.479Z,45
2017-07-17T13:16:18.175Z,45
2017-07-17T13:17:22.826Z,45
2017-07-17T13:18:24.375Z,45
2017-07-17T13:19:25.928Z,45
2017-07-17T13:20:27.610Z,45
2017-07-17T13:21:29.242Z,45
2017-07-17T13:22:30.932Z,45
2017-07-17T13:23:32.649Z,45
2017-07-17T13:24:34.369Z,45
2017-07-17T13:25:37.568Z,45
2017-07-17T13:26:39.407Z,45
2017-07-17T13:27:41.115Z,45
2017-07-17T13:28:42.711Z,45
2017-07-17T13:29:44.377Z,45
2017-07-17T13:30:46.016Z,45
2017-07-17T13:31:47.749Z,40
2017-07-17T13:32:49.460Z,40
2017-07-17T13:33:51.013Z,40
2017-07-17T13:34:52.634Z,40
2017-07-17T13:35:54.436Z,40
2017-07-17T13:36:56.119Z,40
2017-07-17T13:37:57.761Z,40
2017-07-17T13:38:59.426Z,40
2017-07-17T13:40:01.109Z,40
2017-07-17T13:41:02.774Z,40
2017-07-17T13:42:04.456Z,40
2017-07-17T13:43:06.201Z,40
2017-07-17T13:44:08.105Z,40
2017-07-17T13:45:10.050Z,40
2017-07-17T13:46:12.003Z,40
2017-07-17T13:47:13.662Z,40
2017-07-17T13:48:15.413Z,40
2017-07-17T13:49:17.128Z,40
2017-07-17T13:50:18.731Z,40
2017-07-17T13:51:20.338Z,40
2017-07-17T13:52:22.021Z,40
2017-07-17T13:53:23.744Z,40
2017-07-17T13:54:25.401Z,40
2017-07-17T13:55:27.064Z,40
2017-07-17T13:56:37.225Z,40
2017-07-17T13:57:38.722Z,45
2017-07-17T13:58:40.304Z,45
2017-07-17T13:59:41.948Z,45
2017-07-17T14:00:43.549Z,50
2017-07-17T14:01:45.210Z,45
2017-07-17T14:02:46.766Z,45
2017-07-17T14:03:48.367Z,45
2017-07-17T14:04:50.020Z,40
2017-07-17T14:05:51.658Z,40
2017-07-17T14:06:53.267Z,40
2017-07-17T14:07:56.362Z,40
2017-07-17T14:08:57.930Z,40
2017-07-17T14:09:59.519Z,40
2017-07-17T14:11:01.117Z,40
2017-07-17T14:12:02.639Z,40
2017-07-17T14:13:04.187Z,40
2017-07-17T14:14:05.857Z,45
2017-07-17T14:15:07.431Z,45
2017-07-17T14:16:08.992Z,45
2017-07-17T14:17:10.588Z,40
2017-07-17T14:18:12.217Z,40
2017-07-17T14:19:13.995Z,40
2017-07-17T14:20:18.455Z,40
2017-07-17T14:21:21.512Z,35
2017-07-17T14:22:24.240Z,35
2017-07-17T14:23:26.529Z,35
2017-07-17T14:24:28.228Z,35
2017-07-17T14:25:29.942Z,35
2017-07-17T14:26:31.632Z,35
2017-07-17T14:27:33.280Z,35
2017-07-17T14:28:34.900Z,35
2017-07-17T14:29:36.561Z,35
2017-07-17T14:30:38.204Z,35
2017-07-17T14:31:41.252Z,35
2017-07-17T14:32:42.931Z,35
2017-07-17T14:33:45.766Z,35
2017-07-17T14:34:47.323Z,35
2017-07-17T14:35:49.061Z,35
2017-07-17T14:36:50.732Z,35
2017-07-17T14:37:52.475Z,35
2017-07-17T14:38:55.585Z,35
2017-07-17T14:40:00.338Z,35
2017-07-17T14:41:02.082Z,35
2017-07-17T14:42:03.729Z,35
2017-07-17T14:43:05.400Z,35
2017-07-17T14:44:07.051Z,35
2017-07-17T14:45:08.712Z,35
2017-07-17T14:46:10.484Z,35
2017-07-17T14:47:12.124Z,35
2017-07-17T14:48:13.827Z,35
2017-07-17T14:49:15.475Z,35
2017-07-17T14:50:17.255Z,35
2017-07-17T14:51:21.816Z,35
2017-07-17T14:52:24.863Z,35
2017-07-17T14:53:27.929Z,35
2017-07-17T14:54:31.002Z,35
2017-07-17T14:55:35.404Z,35
2017-07-17T14:56:39.964Z,35
2017-07-17T14:57:41.632Z,35
2017-07-17T14:58:45.774Z,35